TKJ4156 LTAC-LTCE
Flight info
| Callsign | TKJ4156 |
|---|---|
| Flight time | N/A |
| Altitude | 37000 |
| Route | GURBU UL615 DAMAT |
| Aircraft | B738/M-SDE2E3FGHIRWXY/LB1 |
Departure
| Time | 2026-04-30 08:05 |
|---|---|
| Airport | Esenboğa International Airport (LTAC) |
Arrival
| Time | N/A |
|---|---|
| Airport | Erzurum International Airport (LTCE) |
| Time | Latitude | Longitude | Altitude | Speed | Heading |
|---|---|---|---|---|---|
| 2026-04-30 07:27 | 40.11630 | 32.99166 | 3134 ft | 0 kts | 151° |
| 2026-04-30 07:51 | 40.11631 | 32.99165 | 3137 ft | 1 kts | 154° |
| 2026-04-30 07:52 | 40.11644 | 32.99161 | 3137 ft | 2 kts | 153° |
| 2026-04-30 07:52 | 40.11656 | 32.99151 | 3137 ft | 0 kts | 150° |
| 2026-04-30 07:52 | 40.11666 | 32.99144 | 3136 ft | 2 kts | 139° |
| 2026-04-30 07:52 | 40.11675 | 32.99129 | 3136 ft | 2 kts | 116° |
| 2026-04-30 07:53 | 40.11680 | 32.99110 | 3135 ft | 2 kts | 94° |
| 2026-04-30 07:53 | 40.11678 | 32.99090 | 3135 ft | 2 kts | 72° |
| 2026-04-30 07:53 | 40.11675 | 32.99080 | 3135 ft | 1 kts | 59° |
| 2026-04-30 07:53 | 40.11673 | 32.99075 | 3135 ft | 0 kts | 61° |
| 2026-04-30 07:56 | 40.11673 | 32.99077 | 3135 ft | 0 kts | 61° |
| 2026-04-30 07:57 | 40.11686 | 32.99103 | 3136 ft | 7 kts | 51° |
| 2026-04-30 07:57 | 40.11755 | 32.99111 | 3136 ft | 14 kts | 329° |
| 2026-04-30 07:57 | 40.11837 | 32.99036 | 3134 ft | 14 kts | 12° |
| 2026-04-30 07:57 | 40.11915 | 32.99108 | 3135 ft | 13 kts | 37° |
| 2026-04-30 07:58 | 40.11985 | 32.99175 | 3136 ft | 11 kts | 37° |
| 2026-04-30 07:58 | 40.12075 | 32.99260 | 3137 ft | 21 kts | 36° |
| 2026-04-30 07:58 | 40.12216 | 32.99394 | 3139 ft | 25 kts | 37° |
| 2026-04-30 07:58 | 40.12355 | 32.99527 | 3140 ft | 24 kts | 37° |
| 2026-04-30 07:59 | 40.12487 | 32.99651 | 3142 ft | 22 kts | 36° |
| 2026-04-30 07:59 | 40.12604 | 32.99766 | 3144 ft | 20 kts | 36° |
| 2026-04-30 07:59 | 40.12716 | 32.99872 | 3144 ft | 19 kts | 37° |
| 2026-04-30 08:00 | 40.12951 | 33.00095 | 3146 ft | 27 kts | 36° |
| 2026-04-30 08:00 | 40.13105 | 33.00241 | 3147 ft | 26 kts | 36° |
| 2026-04-30 08:00 | 40.13252 | 33.00383 | 3147 ft | 25 kts | 37° |
| 2026-04-30 08:00 | 40.13394 | 33.00518 | 3148 ft | 24 kts | 37° |
| 2026-04-30 08:01 | 40.13530 | 33.00645 | 3147 ft | 23 kts | 36° |
| 2026-04-30 08:01 | 40.13660 | 33.00771 | 3147 ft | 22 kts | 36° |
| 2026-04-30 08:01 | 40.13784 | 33.00890 | 3147 ft | 21 kts | 36° |
| 2026-04-30 08:01 | 40.13905 | 33.01003 | 3147 ft | 20 kts | 32° |
| 2026-04-30 08:02 | 40.14083 | 33.01036 | 3146 ft | 5 kts | 310° |
| 2026-04-30 08:02 | 40.14107 | 33.00998 | 3146 ft | 5 kts | 307° |
| 2026-04-30 08:03 | 40.14136 | 33.00901 | 3145 ft | 12 kts | 319° |
| 2026-04-30 08:03 | 40.14211 | 33.00699 | 3143 ft | 12 kts | 248° |
| 2026-04-30 08:03 | 40.14192 | 33.00667 | 3142 ft | 1 kts | 218° |
| 2026-04-30 08:04 | 40.14179 | 33.00654 | 3142 ft | 3 kts | 218° |
| 2026-04-30 08:04 | 40.14159 | 33.00634 | 3142 ft | 3 kts | 216° |
| 2026-04-30 08:04 | 40.14086 | 33.00564 | 3141 ft | 39 kts | 217° |
| 2026-04-30 08:04 | 40.13672 | 33.00171 | 3140 ft | 105 kts | 217° |
| 2026-04-30 08:05 | 40.12928 | 32.99467 | 3137 ft | 158 kts | 215° |
| 2026-04-30 08:05 | 40.11964 | 32.98593 | 3430 ft | 175 kts | 215° |
| 2026-04-30 08:05 | 40.10964 | 32.97660 | 4101 ft | 176 kts | 217° |
| 2026-04-30 08:05 | 40.10019 | 32.96653 | 4663 ft | 185 kts | 221° |
| 2026-04-30 08:06 | 40.08979 | 32.95596 | 5083 ft | 194 kts | 216° |
| 2026-04-30 08:06 | 40.07821 | 32.94564 | 5430 ft | 207 kts | 214° |
| 2026-04-30 08:06 | 40.06587 | 32.93446 | 5729 ft | 225 kts | 216° |
| 2026-04-30 08:06 | 40.05279 | 32.92218 | 6101 ft | 241 kts | 216° |
| 2026-04-30 08:07 | 40.03886 | 32.90898 | 6527 ft | 256 kts | 217° |
| 2026-04-30 08:07 | 40.02391 | 32.89484 | 7000 ft | 270 kts | 217° |
| 2026-04-30 08:07 | 40.00868 | 32.88046 | 7684 ft | 275 kts | 217° |
| 2026-04-30 08:07 | 39.99310 | 32.86577 | 8489 ft | 276 kts | 217° |
| 2026-04-30 08:08 | 39.97754 | 32.85109 | 9252 ft | 279 kts | 217° |
| 2026-04-30 08:08 | 39.96192 | 32.83635 | 10084 ft | 280 kts | 218° |
| 2026-04-30 08:08 | 39.94574 | 32.82129 | 10661 ft | 292 kts | 214° |
| 2026-04-30 08:08 | 39.92642 | 32.81030 | 11123 ft | 311 kts | 195° |
| 2026-04-30 08:09 | 39.90431 | 32.80871 | 11579 ft | 331 kts | 176° |
| 2026-04-30 08:09 | 39.88123 | 32.81623 | 12019 ft | 351 kts | 161° |
| 2026-04-30 08:09 | 39.85930 | 32.83198 | 12473 ft | 370 kts | 143° |
| 2026-04-30 08:09 | 39.84276 | 32.85755 | 13242 ft | 380 kts | 120° |
| 2026-04-30 08:10 | 39.83434 | 32.89013 | 13987 ft | 388 kts | 98° |
| 2026-04-30 08:10 | 39.83465 | 32.92515 | 14744 ft | 394 kts | 80° |
| 2026-04-30 08:10 | 39.84356 | 32.95910 | 15492 ft | 398 kts | 59° |
| 2026-04-30 08:10 | 39.86119 | 32.98597 | 16251 ft | 397 kts | 37° |
| 2026-04-30 08:11 | 39.88403 | 33.00605 | 16960 ft | 399 kts | 27° |
| 2026-04-30 08:11 | 39.90872 | 33.02368 | 17697 ft | 402 kts | 24° |
| 2026-04-30 08:11 | 39.93349 | 33.04022 | 18378 ft | 406 kts | 24° |
| 2026-04-30 08:11 | 39.95879 | 33.05708 | 19066 ft | 410 kts | 24° |
| 2026-04-30 08:12 | 39.98401 | 33.07501 | 19740 ft | 416 kts | 28° |
| 2026-04-30 08:12 | 40.00760 | 33.09703 | 20327 ft | 424 kts | 38° |
| 2026-04-30 08:12 | 40.02833 | 33.12454 | 20947 ft | 431 kts | 48° |
| 2026-04-30 08:12 | 40.04546 | 33.15695 | 21500 ft | 439 kts | 59° |
| 2026-04-30 08:13 | 40.05821 | 33.19325 | 22085 ft | 444 kts | 69° |
| 2026-04-30 08:13 | 40.06618 | 33.23220 | 22674 ft | 448 kts | 79° |
| 2026-04-30 08:13 | 40.07081 | 33.27302 | 23205 ft | 453 kts | 83° |
| 2026-04-30 08:13 | 40.07445 | 33.31355 | 23767 ft | 457 kts | 83° |
| 2026-04-30 08:14 | 40.07859 | 33.35466 | 24286 ft | 461 kts | 81° |
| 2026-04-30 08:14 | 40.08370 | 33.39613 | 24848 ft | 464 kts | 79° |
| 2026-04-30 08:14 | 40.08981 | 33.43764 | 25338 ft | 468 kts | 77° |
| 2026-04-30 08:14 | 40.09675 | 33.47907 | 25856 ft | 471 kts | 76° |
| 2026-04-30 08:15 | 40.10440 | 33.52092 | 26335 ft | 475 kts | 75° |
| 2026-04-30 08:15 | 40.11253 | 33.56283 | 26814 ft | 479 kts | 74° |
| 2026-04-30 08:15 | 40.12101 | 33.60496 | 27297 ft | 482 kts | 73° |
| 2026-04-30 08:15 | 40.12964 | 33.64692 | 27732 ft | 485 kts | 73° |
| 2026-04-30 08:16 | 40.13857 | 33.68980 | 28189 ft | 488 kts | 73° |
| 2026-04-30 08:16 | 40.14762 | 33.73297 | 28598 ft | 492 kts | 73° |
| 2026-04-30 08:16 | 40.15611 | 33.77600 | 29038 ft | 494 kts | 76° |
| 2026-04-30 08:16 | 40.16201 | 33.81995 | 29689 ft | 492 kts | 83° |
| 2026-04-30 08:17 | 40.16343 | 33.86446 | 30219 ft | 492 kts | 92° |
| 2026-04-30 08:17 | 40.16070 | 33.90904 | 30732 ft | 491 kts | 97° |
| 2026-04-30 08:17 | 40.15561 | 33.95306 | 31308 ft | 489 kts | 101° |
| 2026-04-30 08:17 | 40.14972 | 33.99672 | 31837 ft | 487 kts | 101° |
| 2026-04-30 08:18 | 40.14407 | 34.03992 | 32329 ft | 486 kts | 100° |
| 2026-04-30 08:18 | 40.13864 | 34.08348 | 32762 ft | 486 kts | 99° |
| 2026-04-30 08:18 | 40.13345 | 34.12704 | 33259 ft | 485 kts | 99° |
| 2026-04-30 08:18 | 40.12841 | 34.17064 | 33649 ft | 485 kts | 99° |
| 2026-04-30 08:19 | 40.12349 | 34.21404 | 34086 ft | 484 kts | 98° |
| 2026-04-30 08:19 | 40.11974 | 34.24757 | 34441 ft | 483 kts | 98° |
| 2026-04-30 08:19 | 40.11493 | 34.29085 | 34772 ft | 483 kts | 98° |
| 2026-04-30 08:19 | 40.11018 | 34.33369 | 35103 ft | 482 kts | 98° |
| 2026-04-30 08:20 | 40.10532 | 34.37751 | 35444 ft | 480 kts | 98° |
| 2026-04-30 08:20 | 40.10059 | 34.42018 | 35714 ft | 481 kts | 98° |
| 2026-04-30 08:20 | 40.09579 | 34.46326 | 35991 ft | 481 kts | 98° |
| 2026-04-30 08:20 | 40.09094 | 34.50669 | 36279 ft | 480 kts | 98° |
| 2026-04-30 08:21 | 40.08614 | 34.54948 | 36540 ft | 481 kts | 98° |
| 2026-04-30 08:21 | 40.08127 | 34.59268 | 36876 ft | 480 kts | 98° |
| 2026-04-30 08:21 | 40.07639 | 34.63577 | 37099 ft | 482 kts | 98° |
| 2026-04-30 08:22 | 40.06649 | 34.72290 | 37104 ft | 493 kts | 99° |
| 2026-04-30 08:22 | 40.05621 | 34.81270 | 37106 ft | 502 kts | 99° |
| 2026-04-30 08:23 | 40.04581 | 34.90283 | 37104 ft | 508 kts | 99° |
| 2026-04-30 08:23 | 40.04058 | 34.94793 | 37105 ft | 494 kts | 99° |
| 2026-04-30 08:23 | 40.03556 | 34.99120 | 37103 ft | 485 kts | 99° |
| 2026-04-30 08:24 | 40.02547 | 35.07764 | 37107 ft | 481 kts | 99° |
| 2026-04-30 08:24 | 40.01526 | 35.16435 | 37107 ft | 491 kts | 99° |
| 2026-04-30 08:25 | 40.00479 | 35.25268 | 37110 ft | 491 kts | 99° |
| 2026-04-30 08:25 | 39.99434 | 35.34017 | 37111 ft | 489 kts | 99° |
| 2026-04-30 08:26 | 39.98367 | 35.42786 | 37106 ft | 489 kts | 99° |
| 2026-04-30 08:26 | 39.97266 | 35.51495 | 37099 ft | 488 kts | 99° |
| 2026-04-30 08:27 | 39.96151 | 35.60207 | 37101 ft | 488 kts | 99° |
| 2026-04-30 08:27 | 39.95026 | 35.68984 | 37106 ft | 489 kts | 100° |
| 2026-04-30 08:28 | 39.93911 | 35.77636 | 37110 ft | 489 kts | 100° |
| 2026-04-30 08:28 | 39.92784 | 35.86352 | 37117 ft | 489 kts | 100° |
| 2026-04-30 08:29 | 39.91646 | 35.95107 | 37114 ft | 489 kts | 100° |
| 2026-04-30 08:29 | 39.90508 | 36.03795 | 37119 ft | 488 kts | 100° |
| 2026-04-30 08:30 | 39.89365 | 36.12487 | 37121 ft | 488 kts | 100° |
| 2026-04-30 08:30 | 39.88213 | 36.21193 | 37128 ft | 489 kts | 100° |
| 2026-04-30 08:31 | 39.87053 | 36.29854 | 37134 ft | 489 kts | 100° |
| 2026-04-30 08:31 | 39.85803 | 36.38558 | 37137 ft | 489 kts | 100° |
| 2026-04-30 08:32 | 39.84602 | 36.47221 | 37136 ft | 488 kts | 99° |
| 2026-04-30 08:32 | 39.83440 | 36.55911 | 37140 ft | 488 kts | 99° |
| 2026-04-30 08:33 | 39.82289 | 36.64556 | 37143 ft | 487 kts | 99° |
| 2026-04-30 08:33 | 39.81121 | 36.73266 | 37140 ft | 487 kts | 100° |
| 2026-04-30 08:34 | 39.79962 | 36.81857 | 37137 ft | 488 kts | 99° |
| 2026-04-30 08:34 | 39.79224 | 36.90594 | 37139 ft | 487 kts | 90° |
| 2026-04-30 08:35 | 39.79537 | 36.99392 | 37138 ft | 486 kts | 83° |
| 2026-04-30 08:35 | 39.80286 | 37.08062 | 37136 ft | 486 kts | 82° |
| 2026-04-30 08:36 | 39.81094 | 37.16761 | 37145 ft | 485 kts | 82° |
| 2026-04-30 08:36 | 39.81855 | 37.25450 | 37157 ft | 487 kts | 82° |
| 2026-04-30 08:37 | 39.82578 | 37.34180 | 37164 ft | 487 kts | 82° |
| 2026-04-30 08:37 | 39.83273 | 37.42919 | 37173 ft | 486 kts | 82° |
| 2026-04-30 08:38 | 39.83949 | 37.51661 | 37163 ft | 486 kts | 83° |
| 2026-04-30 08:38 | 39.84606 | 37.60339 | 37169 ft | 486 kts | 83° |
| 2026-04-30 08:39 | 39.85262 | 37.69069 | 37178 ft | 486 kts | 83° |
| 2026-04-30 08:39 | 39.85920 | 37.77858 | 37180 ft | 486 kts | 83° |
| 2026-04-30 08:40 | 39.86565 | 37.86570 | 37178 ft | 486 kts | 83° |
| 2026-04-30 08:40 | 39.87209 | 37.95334 | 37178 ft | 486 kts | 83° |
| 2026-04-30 08:41 | 39.87842 | 38.04019 | 37182 ft | 486 kts | 83° |
| 2026-04-30 08:41 | 39.88481 | 38.12783 | 37176 ft | 486 kts | 83° |
| 2026-04-30 08:42 | 39.89108 | 38.21499 | 37168 ft | 486 kts | 83° |
| 2026-04-30 08:42 | 39.89733 | 38.30286 | 37171 ft | 487 kts | 83° |
| 2026-04-30 08:43 | 39.90351 | 38.39048 | 37173 ft | 487 kts | 83° |
| 2026-04-30 08:43 | 39.90964 | 38.47858 | 37171 ft | 486 kts | 83° |
| 2026-04-30 08:44 | 39.91565 | 38.56588 | 37175 ft | 486 kts | 83° |
| 2026-04-30 08:44 | 39.92160 | 38.65325 | 37188 ft | 487 kts | 84° |
| 2026-04-30 08:45 | 39.92755 | 38.74175 | 37181 ft | 487 kts | 84° |
| 2026-04-30 08:45 | 39.93337 | 38.82917 | 37179 ft | 486 kts | 84° |
| 2026-04-30 08:46 | 39.93883 | 38.91688 | 37176 ft | 486 kts | 86° |
| 2026-04-30 08:46 | 39.94101 | 39.00446 | 37179 ft | 486 kts | 89° |
| 2026-04-30 08:47 | 39.94167 | 39.09261 | 37170 ft | 487 kts | 89° |
| 2026-04-30 08:47 | 39.94235 | 39.18100 | 37168 ft | 487 kts | 88° |
| 2026-04-30 08:48 | 39.94336 | 39.26919 | 37158 ft | 487 kts | 88° |
| 2026-04-30 08:48 | 39.94455 | 39.35736 | 37162 ft | 488 kts | 88° |
| 2026-04-30 08:49 | 39.94577 | 39.44583 | 37168 ft | 489 kts | 88° |
| 2026-04-30 08:49 | 39.94695 | 39.53415 | 37162 ft | 488 kts | 88° |
| 2026-04-30 08:50 | 39.94804 | 39.62248 | 37161 ft | 488 kts | 88° |
| 2026-04-30 08:50 | 39.94909 | 39.71018 | 37165 ft | 488 kts | 89° |
| 2026-04-30 08:51 | 39.95010 | 39.79814 | 37158 ft | 488 kts | 89° |
| 2026-04-30 08:51 | 39.95105 | 39.88702 | 37160 ft | 487 kts | 89° |
| 2026-04-30 08:51 | 39.95149 | 39.93042 | 36957 ft | 481 kts | 89° |
| 2026-04-30 08:52 | 39.95189 | 39.97377 | 36483 ft | 477 kts | 88° |
| 2026-04-30 08:52 | 39.95228 | 40.01662 | 35984 ft | 476 kts | 89° |
| 2026-04-30 08:52 | 39.95266 | 40.06004 | 35323 ft | 479 kts | 88° |
| 2026-04-30 08:52 | 39.95303 | 40.10326 | 34600 ft | 484 kts | 88° |
| 2026-04-30 08:53 | 39.95338 | 40.14753 | 33868 ft | 484 kts | 88° |
| 2026-04-30 08:53 | 39.95370 | 40.19134 | 33297 ft | 481 kts | 88° |
| 2026-04-30 08:53 | 39.95399 | 40.23439 | 32732 ft | 478 kts | 88° |
| 2026-04-30 08:53 | 39.95425 | 40.27782 | 32149 ft | 475 kts | 88° |
| 2026-04-30 08:54 | 39.95451 | 40.32046 | 31580 ft | 472 kts | 88° |
| 2026-04-30 08:54 | 39.95477 | 40.36340 | 31004 ft | 469 kts | 88° |
| 2026-04-30 08:54 | 39.95501 | 40.40547 | 30438 ft | 466 kts | 88° |
| 2026-04-30 08:54 | 39.95523 | 40.44761 | 29864 ft | 464 kts | 88° |
| 2026-04-30 08:55 | 39.95544 | 40.48925 | 29301 ft | 460 kts | 88° |
| 2026-04-30 08:55 | 39.95564 | 40.53086 | 28733 ft | 457 kts | 88° |
| 2026-04-30 08:55 | 39.95581 | 40.57223 | 28168 ft | 454 kts | 89° |
| 2026-04-30 08:55 | 39.95622 | 40.61319 | 27601 ft | 451 kts | 86° |
| 2026-04-30 08:56 | 39.95861 | 40.65284 | 27052 ft | 448 kts | 81° |
| 2026-04-30 08:56 | 39.96547 | 40.69273 | 26483 ft | 442 kts | 71° |
| 2026-04-30 08:56 | 39.97573 | 40.73052 | 25934 ft | 437 kts | 67° |
| 2026-04-30 08:56 | 39.98729 | 40.76685 | 25385 ft | 434 kts | 65° |
| 2026-04-30 08:57 | 39.99941 | 40.80270 | 24821 ft | 430 kts | 64° |
| 2026-04-30 08:57 | 40.01158 | 40.83809 | 24275 ft | 426 kts | 64° |
| 2026-04-30 08:57 | 40.02413 | 40.87277 | 23731 ft | 422 kts | 60° |
| 2026-04-30 08:57 | 40.03986 | 40.90510 | 23209 ft | 416 kts | 51° |
| 2026-04-30 08:58 | 40.05805 | 40.93397 | 22670 ft | 411 kts | 46° |
| 2026-04-30 08:58 | 40.07728 | 40.96103 | 22146 ft | 407 kts | 44° |
| 2026-04-30 08:58 | 40.09619 | 40.98848 | 21608 ft | 405 kts | 49° |
| 2026-04-30 08:58 | 40.11104 | 41.01939 | 21204 ft | 401 kts | 66° |
| 2026-04-30 08:59 | 40.11852 | 41.05411 | 21057 ft | 389 kts | 81° |
| 2026-04-30 08:59 | 40.12077 | 41.08868 | 20921 ft | 377 kts | 87° |
| 2026-04-30 08:59 | 40.12177 | 41.12256 | 20492 ft | 375 kts | 88° |
| 2026-04-30 08:59 | 40.12249 | 41.15649 | 20054 ft | 372 kts | 88° |
| 2026-04-30 09:00 | 40.12315 | 41.18995 | 19672 ft | 368 kts | 88° |
| 2026-04-30 09:00 | 40.12382 | 41.22315 | 19327 ft | 363 kts | 88° |
| 2026-04-30 09:00 | 40.12454 | 41.25586 | 18952 ft | 359 kts | 88° |
| 2026-04-30 09:00 | 40.12527 | 41.28862 | 18331 ft | 363 kts | 88° |
| 2026-04-30 09:01 | 40.12601 | 41.32090 | 17967 ft | 358 kts | 88° |
| 2026-04-30 09:01 | 40.12677 | 41.35368 | 17532 ft | 356 kts | 88° |
| 2026-04-30 09:01 | 40.12753 | 41.38577 | 17105 ft | 353 kts | 88° |
| 2026-04-30 09:01 | 40.12827 | 41.41737 | 16692 ft | 351 kts | 88° |
| 2026-04-30 09:02 | 40.11997 | 41.47903 | 15839 ft | 344 kts | 120° |
| 2026-04-30 09:02 | 40.10482 | 41.50284 | 15409 ft | 338 kts | 142° |
| 2026-04-30 09:02 | 40.08498 | 41.51864 | 14965 ft | 333 kts | 158° |
| 2026-04-30 09:03 | 40.06332 | 41.52828 | 14562 ft | 327 kts | 171° |
| 2026-04-30 09:03 | 40.04121 | 41.53156 | 14455 ft | 312 kts | 180° |
| 2026-04-30 09:03 | 40.02000 | 41.53204 | 14364 ft | 299 kts | 183° |
| 2026-04-30 09:03 | 39.99988 | 41.52860 | 14272 ft | 283 kts | 200° |
| 2026-04-30 09:04 | 39.98249 | 41.51818 | 14182 ft | 268 kts | 217° |
| 2026-04-30 09:04 | 39.96995 | 41.50138 | 14078 ft | 253 kts | 242° |
| 2026-04-30 09:04 | 39.96427 | 41.48057 | 13963 ft | 242 kts | 261° |
| 2026-04-30 09:04 | 39.96261 | 41.45878 | 13650 ft | 242 kts | 268° |
| 2026-04-30 09:05 | 39.96225 | 41.43673 | 13343 ft | 241 kts | 269° |
| 2026-04-30 09:05 | 39.96214 | 41.41491 | 12932 ft | 245 kts | 269° |
| 2026-04-30 09:05 | 39.96198 | 41.39240 | 12278 ft | 259 kts | 266° |
| 2026-04-30 09:05 | 39.95803 | 41.36884 | 11545 ft | 273 kts | 244° |
| 2026-04-30 09:06 | 39.94620 | 41.34943 | 10943 ft | 282 kts | 218° |
| 2026-04-30 09:06 | 39.92847 | 41.33903 | 10566 ft | 284 kts | 191° |
| 2026-04-30 09:06 | 39.90868 | 41.33834 | 10209 ft | 284 kts | 176° |
| 2026-04-30 09:06 | 39.88992 | 41.34452 | 10060 ft | 277 kts | 153° |
| 2026-04-30 09:07 | 39.87545 | 41.36048 | 10015 ft | 265 kts | 124° |
| 2026-04-30 09:07 | 39.86906 | 41.38202 | 10013 ft | 254 kts | 95° |
| 2026-04-30 09:07 | 39.86962 | 41.40472 | 10031 ft | 250 kts | 83° |
| 2026-04-30 09:07 | 39.87196 | 41.42717 | 10039 ft | 249 kts | 82° |
| 2026-04-30 09:08 | 39.87431 | 41.44973 | 10014 ft | 252 kts | 82° |
| 2026-04-30 09:08 | 39.87659 | 41.47216 | 10008 ft | 250 kts | 82° |
| 2026-04-30 09:08 | 39.87886 | 41.49443 | 10014 ft | 251 kts | 82° |
| 2026-04-30 09:08 | 39.88118 | 41.51708 | 10011 ft | 249 kts | 82° |
| 2026-04-30 09:09 | 39.88345 | 41.53941 | 10011 ft | 249 kts | 82° |
| 2026-04-30 09:09 | 39.88571 | 41.56150 | 10007 ft | 250 kts | 82° |
| 2026-04-30 09:09 | 39.88803 | 41.58418 | 10008 ft | 249 kts | 82° |
| 2026-04-30 09:09 | 39.89030 | 41.60632 | 10007 ft | 250 kts | 82° |
| 2026-04-30 09:10 | 39.89263 | 41.62905 | 10008 ft | 251 kts | 82° |
| 2026-04-30 09:10 | 39.89487 | 41.65096 | 10003 ft | 250 kts | 82° |
| 2026-04-30 09:10 | 39.89493 | 41.65148 | 10003 ft | 250 kts | 82° |
| 2026-04-30 10:48 | 39.89675 | 41.66932 | 10004 ft | 250 kts | 83° |
| 2026-04-30 10:48 | 39.90071 | 41.69054 | 9995 ft | 250 kts | 63° |